sensor_id;sensor_type;location;lat;lon;timestamp;pressure;altitude;pressure_sealevel;temperature;humidity
62508;BME280;48556;51.972;4.624;2023-01-15T00:00:18;99821.47;;;9.82;68.40
62508;BME280;48556;51.972;4.624;2023-01-15T00:02:44;99811.94;;;9.78;68.51
62508;BME280;48556;51.972;4.624;2023-01-15T00:05:09;99815.03;;;9.95;68.95
62508;BME280;48556;51.972;4.624;2023-01-15T00:07:34;99826.66;;;9.85;69.06
62508;BME280;48556;51.972;4.624;2023-01-15T00:10:00;99824.06;;;9.47;69.96
62508;BME280;48556;51.972;4.624;2023-01-15T00:12:25;99808.50;;;9.39;70.50
62508;BME280;48556;51.972;4.624;2023-01-15T00:14:51;99814.78;;;9.70;70.22
62508;BME280;48556;51.972;4.624;2023-01-15T00:17:17;99804.06;;;9.41;71.15
62508;BME280;48556;51.972;4.624;2023-01-15T00:19:42;99802.13;;;9.50;69.49
62508;BME280;48556;51.972;4.624;2023-01-15T00:22:08;99814.66;;;9.38;69.11
62508;BME280;48556;51.972;4.624;2023-01-15T00:24:33;99801.84;;;9.62;69.38
62508;BME280;48556;51.972;4.624;2023-01-15T00:27:18;99810.59;;;9.61;68.66
62508;BME280;48556;51.972;4.624;2023-01-15T00:30:03;99809.50;;;9.71;68.29
62508;BME280;48556;51.972;4.624;2023-01-15T00:32:28;99799.88;;;9.70;67.31
62508;BME280;48556;51.972;4.624;2023-01-15T00:34:55;99798.31;;;9.63;66.94
62508;BME280;48556;51.972;4.624;2023-01-15T00:37:21;99805.00;;;9.40;67.75
62508;BME280;48556;51.972;4.624;2023-01-15T00:39:46;99795.22;;;9.46;67.16
62508;BME280;48556;51.972;4.624;2023-01-15T00:42:12;99786.53;;;9.44;67.24
62508;BME280;48556;51.972;4.624;2023-01-15T00:44:38;99792.34;;;9.56;66.54
62508;BME280;48556;51.972;4.624;2023-01-15T00:47:04;99804.78;;;9.48;66.56
62508;BME280;48556;51.972;4.624;2023-01-15T00:49:31;99818.22;;;9.34;66.98
62508;BME280;48556;51.972;4.624;2023-01-15T00:51:56;99799.06;;;9.32;67.15
62508;BME280;48556;51.972;4.624;2023-01-15T00:54:22;99800.41;;;9.49;65.99
62508;BME280;48556;51.972;4.624;2023-01-15T00:56:48;99800.81;;;9.32;67.09
62508;BME280;48556;51.972;4.624;2023-01-15T00:59:13;99811.72;;;9.51;66.68
62508;BME280;48556;51.972;4.624;2023-01-15T01:01:39;99785.72;;;9.02;67.78
62508;BME280;48556;51.972;4.624;2023-01-15T01:04:05;99794.63;;;9.34;66.70
62508;BME280;48556;51.972;4.624;2023-01-15T01:06:30;99812.53;;;9.53;65.81
62508;BME280;48556;51.972;4.624;2023-01-15T01:08:56;99802.22;;;9.47;66.20
62508;BME280;48556;51.972;4.624;2023-01-15T01:11:24;99801.88;;;9.61;64.83
62508;BME280;48556;51.972;4.624;2023-01-15T01:13:52;99807.66;;;9.37;66.85
62508;BME280;48556;51.972;4.624;2023-01-15T01:18:50;99806.53;;;9.49;66.62
62508;BME280;48556;51.972;4.624;2023-01-15T01:21:16;99810.31;;;9.73;65.83
62508;BME280;48556;51.972;4.624;2023-01-15T01:23:42;99812.88;;;9.75;65.22
62508;BME280;48556;51.972;4.624;2023-01-15T01:26:08;99810.56;;;9.64;64.75
62508;BME280;48556;51.972;4.624;2023-01-15T01:28:34;99812.69;;;9.09;65.06
62508;BME280;48556;51.972;4.624;2023-01-15T01:31:04;99803.81;;;9.15;65.61
62508;BME280;48556;51.972;4.624;2023-01-15T01:33:29;99809.78;;;9.21;66.02
62508;BME280;48556;51.972;4.624;2023-01-15T01:35:55;99812.09;;;9.35;65.67
62508;BME280;48556;51.972;4.624;2023-01-15T01:38:20;99818.75;;;9.50;64.61
62508;BME280;48556;51.972;4.624;2023-01-15T01:40:46;99815.16;;;9.15;65.68
62508;BME280;48556;51.972;4.624;2023-01-15T01:43:23;99809.28;;;9.04;67.08
62508;BME280;48556;51.972;4.624;2023-01-15T01:45:49;99812.72;;;9.07;67.34
62508;BME280;48556;51.972;4.624;2023-01-15T01:48:19;99817.53;;;9.26;65.92
62508;BME280;48556;51.972;4.624;2023-01-15T01:50:48;99806.34;;;9.18;66.03
62508;BME280;48556;51.972;4.624;2023-01-15T01:53:20;99806.72;;;9.02;66.70
62508;BME280;48556;51.972;4.624;2023-01-15T01:55:49;99812.75;;;9.06;66.78
62508;BME280;48556;51.972;4.624;2023-01-15T01:58:17;99823.97;;;9.13;64.99
62508;BME280;48556;51.972;4.624;2023-01-15T02:00:47;99819.25;;;8.88;66.37
62508;BME280;48556;51.972;4.624;2023-01-15T02:03:17;99808.28;;;9.10;65.94
62508;BME280;48556;51.972;4.624;2023-01-15T02:05:55;99813.69;;;9.03;65.64
62508;BME280;48556;51.972;4.624;2023-01-15T02:08:23;99831.38;;;8.94;66.07
62508;BME280;48556;51.972;4.624;2023-01-15T02:10:53;99816.34;;;9.41;65.07
62508;BME280;48556;51.972;4.624;2023-01-15T02:13:46;99805.00;;;9.39;64.49
62508;BME280;48556;51.972;4.624;2023-01-15T02:16:21;99803.31;;;8.99;64.97
62508;BME280;48556;51.972;4.624;2023-01-15T02:21:55;99802.50;;;8.95;65.27
62508;BME280;48556;51.972;4.624;2023-01-15T02:27:41;99797.59;;;9.19;65.30
62508;BME280;48556;51.972;4.624;2023-01-15T02:30:18;99805.66;;;9.11;65.74
62508;BME280;48556;51.972;4.624;2023-01-15T02:33:04;99798.09;;;8.97;66.65
62508;BME280;48556;51.972;4.624;2023-01-15T02:35:40;99794.28;;;9.11;65.58
62508;BME280;48556;51.972;4.624;2023-01-15T02:38:14;99793.50;;;9.07;66.37
62508;BME280;48556;51.972;4.624;2023-01-15T02:40:42;99798.09;;;8.97;66.45
62508;BME280;48556;51.972;4.624;2023-01-15T02:43:12;99803.81;;;8.74;67.12
62508;BME280;48556;51.972;4.624;2023-01-15T02:45:43;99811.31;;;8.49;68.52
62508;BME280;48556;51.972;4.624;2023-01-15T02:48:14;99802.47;;;8.97;67.13
62508;BME280;48556;51.972;4.624;2023-01-15T02:51:14;99810.03;;;9.11;65.89
62508;BME280;48556;51.972;4.624;2023-01-15T02:53:47;99816.41;;;8.99;66.80
62508;BME280;48556;51.972;4.624;2023-01-15T02:56:18;99799.22;;;8.85;66.64
62508;BME280;48556;51.972;4.624;2023-01-15T02:58:49;99796.69;;;8.81;66.57
62508;BME280;48556;51.972;4.624;2023-01-15T03:01:26;99803.63;;;8.83;66.39
62508;BME280;48556;51.972;4.624;2023-01-15T03:04:03;99786.97;;;8.86;66.06
62508;BME280;48556;51.972;4.624;2023-01-15T03:09:04;99801.91;;;9.21;63.87
62508;BME280;48556;51.972;4.624;2023-01-15T03:11:35;99801.16;;;9.16;64.73
62508;BME280;48556;51.972;4.624;2023-01-15T03:14:13;99796.09;;;9.09;66.58
62508;BME280;48556;51.972;4.624;2023-01-15T03:16:49;99796.78;;;9.17;66.93
62508;BME280;48556;51.972;4.624;2023-01-15T03:19:40;99785.94;;;9.32;67.38
62508;BME280;48556;51.972;4.624;2023-01-15T03:22:31;99782.72;;;9.57;66.38
62508;BME280;48556;51.972;4.624;2023-01-15T03:25:18;99779.41;;;9.50;66.81
62508;BME280;48556;51.972;4.624;2023-01-15T03:27:45;99783.44;;;9.26;67.72
62508;BME280;48556;51.972;4.624;2023-01-15T03:30:20;99785.28;;;9.22;67.35
62508;BME280;48556;51.972;4.624;2023-01-15T03:32:46;99786.22;;;8.81;69.36
62508;BME280;48556;51.972;4.624;2023-01-15T03:38:13;99781.94;;;9.16;68.22
62508;BME280;48556;51.972;4.624;2023-01-15T03:41:06;99782.25;;;9.02;67.95
62508;BME280;48556;51.972;4.624;2023-01-15T03:50:04;99781.66;;;8.89;67.83
62508;BME280;48556;51.972;4.624;2023-01-15T03:55:25;99766.88;;;8.41;68.11
62508;BME280;48556;51.972;4.624;2023-01-15T03:58:01;99775.69;;;8.82;67.59
62508;BME280;48556;51.972;4.624;2023-01-15T04:00:41;99774.25;;;8.67;67.68
62508;BME280;48556;51.972;4.624;2023-01-15T04:03:10;99771.34;;;8.81;67.00
62508;BME280;48556;51.972;4.624;2023-01-15T04:05:38;99776.19;;;8.58;67.56
62508;BME280;48556;51.972;4.624;2023-01-15T04:08:05;99776.09;;;8.62;68.51
62508;BME280;48556;51.972;4.624;2023-01-15T04:10:31;99778.75;;;9.01;67.41
62508;BME280;48556;51.972;4.624;2023-01-15T04:12:57;99776.50;;;8.84;67.66
62508;BME280;48556;51.972;4.624;2023-01-15T04:15:22;99770.59;;;8.75;68.91
62508;BME280;48556;51.972;4.624;2023-01-15T04:17:48;99776.53;;;8.41;69.37
62508;BME280;48556;51.972;4.624;2023-01-15T04:20:13;99788.16;;;8.71;68.95
62508;BME280;48556;51.972;4.624;2023-01-15T04:22:39;99786.22;;;8.81;68.59
62508;BME280;48556;51.972;4.624;2023-01-15T04:25:05;99786.56;;;8.62;68.62
62508;BME280;48556;51.972;4.624;2023-01-15T04:27:31;99774.59;;;8.93;68.21
62508;BME280;48556;51.972;4.624;2023-01-15T04:29:57;99784.47;;;8.80;67.62
62508;BME280;48556;51.972;4.624;2023-01-15T04:32:23;99779.63;;;8.61;67.42
62508;BME280;48556;51.972;4.624;2023-01-15T04:34:49;99780.47;;;9.02;66.94
62508;BME280;48556;51.972;4.624;2023-01-15T04:37:16;99783.88;;;8.67;68.11
62508;BME280;48556;51.972;4.624;2023-01-15T04:39:42;99781.91;;;8.78;67.64
62508;BME280;48556;51.972;4.624;2023-01-15T04:42:14;99781.34;;;8.62;66.69
62508;BME280;48556;51.972;4.624;2023-01-15T04:44:58;99781.88;;;8.34;67.98
62508;BME280;48556;51.972;4.624;2023-01-15T04:47:23;99765.28;;;8.34;67.64
62508;BME280;48556;51.972;4.624;2023-01-15T04:49:49;99785.25;;;8.39;67.01
62508;BME280;48556;51.972;4.624;2023-01-15T04:52:15;99766.78;;;8.49;66.78
62508;BME280;48556;51.972;4.624;2023-01-15T04:54:40;99790.69;;;8.30;66.22
62508;BME280;48556;51.972;4.624;2023-01-15T04:57:06;99778.25;;;8.42;65.62
62508;BME280;48556;51.972;4.624;2023-01-15T04:59:32;99770.84;;;8.18;65.56
62508;BME280;48556;51.972;4.624;2023-01-15T05:01:57;99774.72;;;8.43;66.32
62508;BME280;48556;51.972;4.624;2023-01-15T05:04:23;99780.66;;;8.52;64.50
62508;BME280;48556;51.972;4.624;2023-01-15T05:06:48;99773.81;;;8.44;64.94
62508;BME280;48556;51.972;4.624;2023-01-15T05:09:14;99773.22;;;8.75;63.11
62508;BME280;48556;51.972;4.624;2023-01-15T05:11:41;99773.13;;;8.35;61.30
62508;BME280;48556;51.972;4.624;2023-01-15T05:14:07;99775.59;;;8.43;60.98
62508;BME280;48556;51.972;4.624;2023-01-15T05:16:35;99778.25;;;8.42;60.47
62508;BME280;48556;51.972;4.624;2023-01-15T05:19:04;99762.19;;;8.60;61.13
62508;BME280;48556;51.972;4.624;2023-01-15T05:21:34;99762.84;;;8.70;61.44
62508;BME280;48556;51.972;4.624;2023-01-15T05:24:02;99746.53;;;8.57;61.79
62508;BME280;48556;51.972;4.624;2023-01-15T05:26:30;99755.09;;;8.65;60.64
62508;BME280;48556;51.972;4.624;2023-01-15T05:28:58;99761.22;;;8.64;60.49
62508;BME280;48556;51.972;4.624;2023-01-15T05:31:25;99757.13;;;8.51;62.91
62508;BME280;48556;51.972;4.624;2023-01-15T05:33:52;99759.66;;;8.96;61.99
62508;BME280;48556;51.972;4.624;2023-01-15T05:36:21;99764.91;;;8.55;62.82
62508;BME280;48556;51.972;4.624;2023-01-15T05:39:06;99765.56;;;8.65;62.90
62508;BME280;48556;51.972;4.624;2023-01-15T05:41:31;99757.19;;;8.48;63.30
62508;BME280;48556;51.972;4.624;2023-01-15T05:44:28;99761.97;;;8.26;63.31
62508;BME280;48556;51.972;4.624;2023-01-15T05:46:59;99767.78;;;8.42;64.83
62508;BME280;48556;51.972;4.624;2023-01-15T05:49:28;99759.41;;;8.23;65.11
62508;BME280;48556;51.972;4.624;2023-01-15T05:51:56;99768.19;;;8.20;66.49
62508;BME280;48556;51.972;4.624;2023-01-15T05:54:25;99767.38;;;8.18;69.84
62508;BME280;48556;51.972;4.624;2023-01-15T05:56:53;99777.06;;;8.13;68.78
62508;BME280;48556;51.972;4.624;2023-01-15T05:59:21;99765.31;;;7.87;69.63
62508;BME280;48556;51.972;4.624;2023-01-15T06:01:47;99772.22;;;7.91;68.80
62508;BME280;48556;51.972;4.624;2023-01-15T06:04:13;99766.44;;;7.72;67.09
62508;BME280;48556;51.972;4.624;2023-01-15T06:06:40;99770.78;;;7.72;66.95
62508;BME280;48556;51.972;4.624;2023-01-15T06:09:06;99776.25;;;7.59;65.83
62508;BME280;48556;51.972;4.624;2023-01-15T06:11:32;99777.09;;;7.60;64.33
62508;BME280;48556;51.972;4.624;2023-01-15T06:13:58;99789.34;;;7.59;64.53
62508;BME280;48556;51.972;4.624;2023-01-15T06:16:24;99785.19;;;7.46;63.16
62508;BME280;48556;51.972;4.624;2023-01-15T06:18:50;99779.50;;;7.74;61.93
62508;BME280;48556;51.972;4.624;2023-01-15T06:21:16;99790.16;;;7.61;62.01
62508;BME280;48556;51.972;4.624;2023-01-15T06:23:42;99793.66;;;7.60;62.77
62508;BME280;48556;51.972;4.624;2023-01-15T06:26:16;99797.50;;;7.91;63.00
62508;BME280;48556;51.972;4.624;2023-01-15T06:28:43;99796.94;;;8.21;61.95
62508;BME280;48556;51.972;4.624;2023-01-15T06:31:15;99798.66;;;8.24;61.84
62508;BME280;48556;51.972;4.624;2023-01-15T06:33:41;99792.69;;;8.16;62.59
62508;BME280;48556;51.972;4.624;2023-01-15T06:36:09;99801.84;;;7.93;63.07
62508;BME280;48556;51.972;4.624;2023-01-15T06:38:35;99820.59;;;7.67;64.54
62508;BME280;48556;51.972;4.624;2023-01-15T06:41:03;99815.94;;;7.86;64.09
62508;BME280;48556;51.972;4.624;2023-01-15T06:43:29;99785.66;;;7.69;64.35
62508;BME280;48556;51.972;4.624;2023-01-15T06:46:15;99791.72;;;7.72;63.12
62508;BME280;48556;51.972;4.624;2023-01-15T06:48:59;99788.16;;;7.76;63.72
62508;BME280;48556;51.972;4.624;2023-01-15T06:51:25;99814.50;;;7.66;62.42
62508;BME280;48556;51.972;4.624;2023-01-15T06:53:50;99789.81;;;7.81;62.06
62508;BME280;48556;51.972;4.624;2023-01-15T06:56:16;99778.28;;;7.42;63.28
62508;BME280;48556;51.972;4.624;2023-01-15T06:58:43;99788.34;;;7.66;63.73
62508;BME280;48556;51.972;4.624;2023-01-15T07:01:10;99785.88;;;7.57;63.01
62508;BME280;48556;51.972;4.624;2023-01-15T07:03:36;99782.91;;;7.79;63.10
62508;BME280;48556;51.972;4.624;2023-01-15T07:06:11;99777.97;;;7.60;63.14
62508;BME280;48556;51.972;4.624;2023-01-15T07:08:38;99787.50;;;7.64;62.85
62508;BME280;48556;51.972;4.624;2023-01-15T07:11:08;99770.22;;;7.54;63.17
62508;BME280;48556;51.972;4.624;2023-01-15T07:13:34;99782.91;;;7.79;62.96
62508;BME280;48556;51.972;4.624;2023-01-15T07:16:02;99777.69;;;7.77;61.54
62508;BME280;48556;51.972;4.624;2023-01-15T07:18:32;99783.09;;;7.66;63.89
62508;BME280;48556;51.972;4.624;2023-01-15T07:20:58;99770.56;;;7.85;63.77
62508;BME280;48556;51.972;4.624;2023-01-15T07:23:25;99770.84;;;7.68;62.79
62508;BME280;48556;51.972;4.624;2023-01-15T07:25:52;99766.22;;;7.84;63.82
62508;BME280;48556;51.972;4.624;2023-01-15T07:28:19;99774.81;;;7.93;63.40
62508;BME280;48556;51.972;4.624;2023-01-15T07:30:45;99772.50;;;7.74;62.35
62508;BME280;48556;51.972;4.624;2023-01-15T07:33:10;99779.34;;;7.81;62.74
62508;BME280;48556;51.972;4.624;2023-01-15T07:35:37;99778.47;;;7.82;62.59
62508;BME280;48556;51.972;4.624;2023-01-15T07:38:02;99781.91;;;7.86;62.51
62508;BME280;48556;51.972;4.624;2023-01-15T07:40:28;99768.53;;;8.01;62.33
62508;BME280;48556;51.972;4.624;2023-01-15T07:42:53;99769.59;;;7.90;62.80
62508;BME280;48556;51.972;4.624;2023-01-15T07:49:00;99759.44;;;7.73;64.38
62508;BME280;48556;51.972;4.624;2023-01-15T07:51:45;99768.16;;;7.72;64.90
62508;BME280;48556;51.972;4.624;2023-01-15T07:54:11;99780.41;;;7.71;63.64
62508;BME280;48556;51.972;4.624;2023-01-15T07:56:39;99772.38;;;7.82;64.75
62508;BME280;48556;51.972;4.624;2023-01-15T07:59:05;99770.94;;;7.64;65.06
62508;BME280;48556;51.972;4.624;2023-01-15T08:01:30;99760.94;;;7.87;64.69
62508;BME280;48556;51.972;4.624;2023-01-15T08:03:55;99757.97;;;7.56;65.65
62508;BME280;48556;51.972;4.624;2023-01-15T08:06:21;99765.75;;;7.62;66.02
62508;BME280;48556;51.972;4.624;2023-01-15T08:08:46;99761.75;;;7.91;64.48
62508;BME280;48556;51.972;4.624;2023-01-15T08:11:12;99764.63;;;7.76;64.97
62508;BME280;48556;51.972;4.624;2023-01-15T08:13:56;99776.47;;;7.97;64.60
62508;BME280;48556;51.972;4.624;2023-01-15T08:16:40;99779.34;;;7.83;64.87
62508;BME280;48556;51.972;4.624;2023-01-15T08:19:06;99790.69;;;7.82;64.49
62508;BME280;48556;51.972;4.624;2023-01-15T08:21:31;99785.16;;;7.99;64.41
62508;BME280;48556;51.972;4.624;2023-01-15T08:23:57;99785.97;;;8.02;64.77
62508;BME280;48556;51.972;4.624;2023-01-15T08:26:22;99771.94;;;8.07;65.11
62508;BME280;48556;51.972;4.624;2023-01-15T08:28:48;99786.50;;;8.20;64.84
62508;BME280;48556;51.972;4.624;2023-01-15T08:31:13;99775.88;;;7.81;65.97
62508;BME280;48556;51.972;4.624;2023-01-15T08:33:39;99771.13;;;8.03;65.94
62508;BME280;48556;51.972;4.624;2023-01-15T08:36:04;99763.28;;;8.03;65.66
62508;BME280;48556;51.972;4.624;2023-01-15T08:38:30;99753.53;;;8.11;66.36
62508;BME280;48556;51.972;4.624;2023-01-15T08:40:55;99765.13;;;8.45;65.32
62508;BME280;48556;51.972;4.624;2023-01-15T08:43:25;99757.78;;;8.17;65.05
62508;BME280;48556;51.972;4.624;2023-01-15T08:45:51;99778.84;;;8.09;65.73
62508;BME280;48556;51.972;4.624;2023-01-15T08:48:17;99778.78;;;8.14;65.32
62508;BME280;48556;51.972;4.624;2023-01-15T08:50:43;99773.63;;;8.11;65.57
62508;BME280;48556;51.972;4.624;2023-01-15T08:53:10;99781.31;;;8.18;65.80
62508;BME280;48556;51.972;4.624;2023-01-15T08:55:36;99775.88;;;8.29;64.83
62508;BME280;48556;51.972;4.624;2023-01-15T08:58:01;99780.25;;;8.27;64.75
62508;BME280;48556;51.972;4.624;2023-01-15T09:00:27;99764.91;;;8.09;65.29
62508;BME280;48556;51.972;4.624;2023-01-15T09:02:56;99810.28;;;8.11;66.03
62508;BME280;48556;51.972;4.624;2023-01-15T09:05:24;99786.47;;;8.21;66.12
62508;BME280;48556;51.972;4.624;2023-01-15T09:07:49;99779.94;;;8.43;65.87
62508;BME280;48556;51.972;4.624;2023-01-15T09:10:15;99764.22;;;8.46;65.23
62508;BME280;48556;51.972;4.624;2023-01-15T09:12:41;99776.41;;;8.47;64.35
62508;BME280;48556;51.972;4.624;2023-01-15T09:15:07;99767.25;;;8.23;64.63
62508;BME280;48556;51.972;4.624;2023-01-15T09:17:32;99765.66;;;8.15;64.70
62508;BME280;48556;51.972;4.624;2023-01-15T09:19:58;99784.81;;;8.17;65.07
62508;BME280;48556;51.972;4.624;2023-01-15T09:22:24;99753.31;;;8.22;64.50
62508;BME280;48556;51.972;4.624;2023-01-15T09:24:58;99775.50;;;8.02;65.20
62508;BME280;48556;51.972;4.624;2023-01-15T09:27:24;99771.94;;;8.07;64.66
62508;BME280;48556;51.972;4.624;2023-01-15T09:29:49;99774.09;;;8.30;63.74
62508;BME280;48556;51.972;4.624;2023-01-15T09:32:15;99761.03;;;8.28;63.73
62508;BME280;48556;51.972;4.624;2023-01-15T09:34:40;99775.94;;;8.25;62.11
62508;BME280;48556;51.972;4.624;2023-01-15T09:37:06;99767.56;;;8.54;62.30
62508;BME280;48556;51.972;4.624;2023-01-15T09:39:31;99779.94;;;8.43;61.71
62508;BME280;48556;51.972;4.624;2023-01-15T09:45:19;99761.69;;;8.39;62.21
62508;BME280;48556;51.972;4.624;2023-01-15T09:50:30;99769.41;;;8.89;62.86
62508;BME280;48556;51.972;4.624;2023-01-15T09:53:05;99761.78;;;8.79;63.52
62508;BME280;48556;51.972;4.624;2023-01-15T09:55:47;99779.06;;;8.89;64.74
62508;BME280;48556;51.972;4.624;2023-01-15T09:58:17;99770.66;;;8.71;66.48
62508;BME280;48556;51.972;4.624;2023-01-15T10:00:49;99789.75;;;8.78;67.01
62508;BME280;48556;51.972;4.624;2023-01-15T10:08:39;99789.97;;;8.67;67.83
62508;BME280;48556;51.972;4.624;2023-01-15T10:14:08;99793.63;;;9.01;67.50
62508;BME280;48556;51.972;4.624;2023-01-15T10:16:35;99792.72;;;9.03;66.56
62508;BME280;48556;51.972;4.624;2023-01-15T10:19:02;99804.16;;;9.38;66.41
62508;BME280;48556;51.972;4.624;2023-01-15T10:24:24;99789.53;;;8.89;66.89
62508;BME280;48556;51.972;4.624;2023-01-15T10:26:56;99791.19;;;8.92;66.95
62508;BME280;48556;51.972;4.624;2023-01-15T10:35:20;99799.75;;;9.39;66.05
62508;BME280;48556;51.972;4.624;2023-01-15T10:38:08;99801.88;;;9.23;64.00
62508;BME280;48556;51.972;4.624;2023-01-15T10:46:31;99809.50;;;8.95;61.87
62508;BME280;48556;51.972;4.624;2023-01-15T10:49:09;99814.94;;;8.85;61.30
62508;BME280;48556;51.972;4.624;2023-01-15T10:51:52;99811.50;;;9.24;61.62
62508;BME280;48556;51.972;4.624;2023-01-15T10:54:39;99805.34;;;9.23;64.13
62508;BME280;48556;51.972;4.624;2023-01-15T10:59:58;99819.19;;;8.91;67.23
62508;BME280;48556;51.972;4.624;2023-01-15T11:02:44;99820.53;;;8.68;67.85
62508;BME280;48556;51.972;4.624;2023-01-15T11:05:16;99820.22;;;8.84;68.45
62508;BME280;48556;51.972;4.624;2023-01-15T11:07:48;99810.25;;;8.58;68.32
62508;BME280;48556;51.972;4.624;2023-01-15T11:10:17;99828.91;;;8.41;69.89
62508;BME280;48556;51.972;4.624;2023-01-15T11:16:03;99826.66;;;8.67;69.57
62508;BME280;48556;51.972;4.624;2023-01-15T11:18:48;99812.78;;;8.62;69.45
62508;BME280;48556;51.972;4.624;2023-01-15T11:21:32;99824.28;;;8.55;70.08
62508;BME280;48556;51.972;4.624;2023-01-15T11:24:00;99827.75;;;8.57;70.89
62508;BME280;48556;51.972;4.624;2023-01-15T11:26:29;99815.72;;;8.91;70.32
62508;BME280;48556;51.972;4.624;2023-01-15T11:28:58;99815.72;;;8.91;70.08
62508;BME280;48556;51.972;4.624;2023-01-15T11:31:38;99821.25;;;8.77;70.50
62508;BME280;48556;51.972;4.624;2023-01-15T11:34:19;99807.69;;;8.56;71.97
62508;BME280;48556;51.972;4.624;2023-01-15T11:37:03;99794.22;;;8.73;71.51
62508;BME280;48556;51.972;4.624;2023-01-15T11:39:29;99794.94;;;8.81;72.30
62508;BME280;48556;51.972;4.624;2023-01-15T11:42:11;99791.63;;;8.71;74.89
62508;BME280;48556;51.972;4.624;2023-01-15T11:44:58;99793.97;;;8.42;78.33
62508;BME280;48556;51.972;4.624;2023-01-15T11:47:54;99795.84;;;8.35;79.04
62508;BME280;48556;51.972;4.624;2023-01-15T11:51:15;99793.16;;;8.38;80.50
62508;BME280;48556;51.972;4.624;2023-01-15T11:53:52;99803.94;;;7.73;84.26
62508;BME280;48556;51.972;4.624;2023-01-15T11:56:25;99809.84;;;7.84;86.53
62508;BME280;48556;51.972;4.624;2023-01-15T11:58:56;99810.03;;;7.72;88.45
62508;BME280;48556;51.972;4.624;2023-01-15T12:01:44;99807.53;;;7.65;88.91
62508;BME280;48556;51.972;4.624;2023-01-15T12:04:25;99802.19;;;7.72;89.99
62508;BME280;48556;51.972;4.624;2023-01-15T12:06:52;99782.66;;;7.38;90.98
62508;BME280;48556;51.972;4.624;2023-01-15T12:09:30;99798.16;;;7.53;90.38
62508;BME280;48556;51.972;4.624;2023-01-15T12:30:47;99805.72;;;7.70;90.20
62508;BME280;48556;51.972;4.624;2023-01-15T12:33:35;99811.22;;;8.05;89.70
62508;BME280;48556;51.972;4.624;2023-01-15T12:39:00;99833.56;;;7.75;88.68
62508;BME280;48556;51.972;4.624;2023-01-15T12:41:30;99811.38;;;7.97;87.09
62508;BME280;48556;51.972;4.624;2023-01-15T12:47:27;99805.34;;;8.41;82.98
62508;BME280;48556;51.972;4.624;2023-01-15T12:50:06;99805.72;;;8.20;80.01
62508;BME280;48556;51.972;4.624;2023-01-15T12:52:40;99799.31;;;8.35;77.34
62508;BME280;48556;51.972;4.624;2023-01-15T12:55:21;99819.44;;;8.33;74.45
62508;BME280;48556;51.972;4.624;2023-01-15T12:57:58;99804.34;;;8.48;74.69
62508;BME280;48556;51.972;4.624;2023-01-15T13:00:43;99803.25;;;8.58;73.54
62508;BME280;48556;51.972;4.624;2023-01-15T13:05:51;99792.97;;;8.91;72.48
62508;BME280;48556;51.972;4.624;2023-01-15T13:08:34;99814.09;;;8.85;70.72
62508;BME280;48556;51.972;4.624;2023-01-15T13:11:02;99814.31;;;9.15;69.85
62508;BME280;48556;51.972;4.624;2023-01-15T13:13:37;99801.66;;;9.34;68.17
62508;BME280;48556;51.972;4.624;2023-01-15T13:16:23;99783.94;;;9.04;67.35
62508;BME280;48556;51.972;4.624;2023-01-15T13:21:41;99812.09;;;8.96;68.49
62508;BME280;48556;51.972;4.624;2023-01-15T13:26:51;99843.94;;;9.20;66.53
62508;BME280;48556;51.972;4.624;2023-01-15T13:32:10;99824.69;;;8.79;68.91
62508;BME280;48556;51.972;4.624;2023-01-15T13:37:51;99833.28;;;9.26;66.08
62508;BME280;48556;51.972;4.624;2023-01-15T13:40:38;99821.66;;;9.38;66.11
62508;BME280;48556;51.972;4.624;2023-01-15T13:43:07;99825.81;;;9.47;65.39
62508;BME280;48556;51.972;4.624;2023-01-15T13:45:42;99814.34;;;9.51;65.66
62508;BME280;48556;51.972;4.624;2023-01-15T13:48:26;99816.38;;;9.39;65.89
62508;BME280;48556;51.972;4.624;2023-01-15T13:50:57;99847.09;;;9.34;65.20
62508;BME280;48556;51.972;4.624;2023-01-15T13:53:35;99818.84;;;9.46;66.60
62508;BME280;48556;51.972;4.624;2023-01-15T13:56:05;99828.53;;;9.44;66.47
62508;BME280;48556;51.972;4.624;2023-01-15T13:58:34;99833.28;;;9.26;66.76
62508;BME280;48556;51.972;4.624;2023-01-15T14:03:36;99832.81;;;9.84;67.59
62508;BME280;48556;51.972;4.624;2023-01-15T14:06:07;99828.13;;;9.97;65.57
62508;BME280;48556;51.972;4.624;2023-01-15T14:08:42;99850.81;;;9.63;63.94
62508;BME280;48556;51.972;4.624;2023-01-15T14:11:37;99844.38;;;9.37;63.91
62508;BME280;48556;51.972;4.624;2023-01-15T14:30:54;99865.66;;;9.64;69.41
62508;BME280;48556;51.972;4.624;2023-01-15T14:36:19;99870.78;;;8.91;70.21
62508;BME280;48556;51.972;4.624;2023-01-15T14:42:00;99865.31;;;9.00;70.00
62508;BME280;48556;51.972;4.624;2023-01-15T14:45:07;99856.66;;;8.96;68.81
62508;BME280;48556;51.972;4.624;2023-01-15T14:47:50;99867.84;;;9.04;68.80
62508;BME280;48556;51.972;4.624;2023-01-15T14:50:39;99871.50;;;8.97;67.14
62508;BME280;48556;51.972;4.624;2023-01-15T15:05:10;99874.13;;;8.97;67.01
62508;BME280;48556;51.972;4.624;2023-01-15T15:07:21;99887.69;;;9.16;68.27
62508;BME280;48556;51.972;4.624;2023-01-15T15:09:54;99890.81;;;8.93;72.21
62508;BME280;48556;51.972;4.624;2023-01-15T15:12:39;99872.94;;;8.20;75.82
62508;BME280;48556;51.972;4.624;2023-01-15T15:20:59;99883.59;;;8.11;80.42
62508;BME280;48556;51.972;4.624;2023-01-15T15:26:30;99890.94;;;7.87;79.09
62508;BME280;48556;51.972;4.624;2023-01-15T15:29:27;99881.66;;;7.67;81.96
62508;BME280;48556;51.972;4.624;2023-01-15T15:31:56;99872.91;;;7.68;82.71
62508;BME280;48556;51.972;4.624;2023-01-15T15:34:39;99886.56;;;7.87;81.84
62508;BME280;48556;51.972;4.624;2023-01-15T15:37:23;99879.28;;;8.05;82.17
62508;BME280;48556;51.972;4.624;2023-01-15T15:40:16;99892.38;;;8.07;81.49
62508;BME280;48556;51.972;4.624;2023-01-15T15:43:03;99891.53;;;8.04;82.21
62508;BME280;48556;51.972;4.624;2023-01-15T15:45:54;99889.50;;;8.22;83.28
62508;BME280;48556;51.972;4.624;2023-01-15T15:48:55;99879.25;;;8.08;86.38
62508;BME280;48556;51.972;4.624;2023-01-15T15:51:48;99902.25;;;7.89;88.31
62508;BME280;48556;51.972;4.624;2023-01-15T15:58:02;99908.78;;;8.15;87.88
62508;BME280;48556;51.972;4.624;2023-01-15T16:00:37;99906.34;;;8.06;87.82
62508;BME280;48556;51.972;4.624;2023-01-15T16:03:22;99915.72;;;8.19;87.85